sensor_id;sensor_type;location;lat;lon;timestamp;P1;durP1;ratioP1;P2;durP2;ratioP2
72261;SDS011;60173;52.112;8.648;2023-05-10T00:01:46;12.48;;;10.05;;
72261;SDS011;60173;52.112;8.648;2023-05-10T00:04:12;12.05;;;9.98;;
72261;SDS011;60173;52.112;8.648;2023-05-10T00:06:39;11.23;;;9.10;;
72261;SDS011;60173;52.112;8.648;2023-05-10T00:09:05;11.82;;;9.75;;
72261;SDS011;60173;52.112;8.648;2023-05-10T00:11:32;12.07;;;9.73;;
72261;SDS011;60173;52.112;8.648;2023-05-10T00:13:59;11.40;;;10.20;;
72261;SDS011;60173;52.112;8.648;2023-05-10T00:16:25;10.77;;;9.18;;
72261;SDS011;60173;52.112;8.648;2023-05-10T00:18:51;12.23;;;9.40;;
72261;SDS011;60173;52.112;8.648;2023-05-10T00:21:18;11.70;;;10.50;;
72261;SDS011;60173;52.112;8.648;2023-05-10T00:23:44;12.63;;;10.52;;
72261;SDS011;60173;52.112;8.648;2023-05-10T00:26:10;11.70;;;9.98;;
72261;SDS011;60173;52.112;8.648;2023-05-10T00:28:37;13.27;;;10.13;;
72261;SDS011;60173;52.112;8.648;2023-05-10T00:31:04;11.95;;;10.15;;
72261;SDS011;60173;52.112;8.648;2023-05-10T00:33:30;12.40;;;10.75;;
72261;SDS011;60173;52.112;8.648;2023-05-10T00:35:56;13.18;;;10.85;;
72261;SDS011;60173;52.112;8.648;2023-05-10T00:38:23;12.75;;;10.50;;
72261;SDS011;60173;52.112;8.648;2023-05-10T00:40:49;13.05;;;10.15;;
72261;SDS011;60173;52.112;8.648;2023-05-10T00:43:15;11.88;;;10.23;;
72261;SDS011;60173;52.112;8.648;2023-05-10T00:45:42;14.02;;;11.18;;
72261;SDS011;60173;52.112;8.648;2023-05-10T00:48:09;14.15;;;11.35;;
72261;SDS011;60173;52.112;8.648;2023-05-10T00:50:35;13.98;;;10.77;;
72261;SDS011;60173;52.112;8.648;2023-05-10T00:53:02;13.45;;;10.70;;
72261;SDS011;60173;52.112;8.648;2023-05-10T00:55:29;14.90;;;11.32;;
72261;SDS011;60173;52.112;8.648;2023-05-10T00:57:56;15.90;;;12.63;;
72261;SDS011;60173;52.112;8.648;2023-05-10T01:00:22;14.77;;;12.23;;
72261;SDS011;60173;52.112;8.648;2023-05-10T01:02:49;14.75;;;11.88;;
72261;SDS011;60173;52.112;8.648;2023-05-10T01:05:15;15.35;;;11.77;;
72261;SDS011;60173;52.112;8.648;2023-05-10T01:07:42;13.73;;;11.10;;
72261;SDS011;60173;52.112;8.648;2023-05-10T01:10:08;14.60;;;11.60;;
72261;SDS011;60173;52.112;8.648;2023-05-10T01:12:35;14.93;;;12.43;;
72261;SDS011;60173;52.112;8.648;2023-05-10T01:15:06;17.23;;;12.57;;
72261;SDS011;60173;52.112;8.648;2023-05-10T01:17:34;15.23;;;12.68;;
72261;SDS011;60173;52.112;8.648;2023-05-10T01:20:03;17.00;;;13.05;;
72261;SDS011;60173;52.112;8.648;2023-05-10T01:22:47;16.52;;;13.45;;
72261;SDS011;60173;52.112;8.648;2023-05-10T01:31:03;17.60;;;13.15;;
72261;SDS011;60173;52.112;8.648;2023-05-10T01:33:43;16.52;;;13.13;;
72261;SDS011;60173;52.112;8.648;2023-05-10T01:38:55;20.27;;;14.43;;
72261;SDS011;60173;52.112;8.648;2023-05-10T01:41:45;18.95;;;14.65;;
72261;SDS011;60173;52.112;8.648;2023-05-10T01:47:07;19.17;;;14.93;;
72261;SDS011;60173;52.112;8.648;2023-05-10T01:49:40;21.95;;;15.95;;
72261;SDS011;60173;52.112;8.648;2023-05-10T01:52:10;25.00;;;16.80;;
72261;SDS011;60173;52.112;8.648;2023-05-10T01:54:44;19.80;;;14.65;;
72261;SDS011;60173;52.112;8.648;2023-05-10T01:57:18;19.17;;;14.38;;
72261;SDS011;60173;52.112;8.648;2023-05-10T01:59:46;18.80;;;14.27;;
72261;SDS011;60173;52.112;8.648;2023-05-10T02:02:16;23.10;;;15.45;;
72261;SDS011;60173;52.112;8.648;2023-05-10T02:04:44;19.20;;;14.73;;
72261;SDS011;60173;52.112;8.648;2023-05-10T02:07:12;21.42;;;16.70;;
72261;SDS011;60173;52.112;8.648;2023-05-10T02:09:40;21.27;;;15.80;;
72261;SDS011;60173;52.112;8.648;2023-05-10T02:12:10;22.60;;;15.75;;
72261;SDS011;60173;52.112;8.648;2023-05-10T02:14:39;19.65;;;15.48;;
72261;SDS011;60173;52.112;8.648;2023-05-10T02:17:08;18.88;;;14.50;;
72261;SDS011;60173;52.112;8.648;2023-05-10T02:19:36;21.73;;;16.70;;
72261;SDS011;60173;52.112;8.648;2023-05-10T02:22:04;19.00;;;15.35;;
72261;SDS011;60173;52.112;8.648;2023-05-10T02:24:33;18.33;;;14.82;;
72261;SDS011;60173;52.112;8.648;2023-05-10T02:27:00;18.65;;;13.85;;
72261;SDS011;60173;52.112;8.648;2023-05-10T02:29:29;16.05;;;12.75;;
72261;SDS011;60173;52.112;8.648;2023-05-10T02:31:57;14.90;;;11.88;;
72261;SDS011;60173;52.112;8.648;2023-05-10T02:34:27;13.52;;;10.85;;
72261;SDS011;60173;52.112;8.648;2023-05-10T02:36:54;11.48;;;8.55;;
72261;SDS011;60173;52.112;8.648;2023-05-10T02:39:22;9.88;;;8.40;;
72261;SDS011;60173;52.112;8.648;2023-05-10T02:41:50;9.10;;;7.25;;
72261;SDS011;60173;52.112;8.648;2023-05-10T02:44:19;7.85;;;5.50;;
72261;SDS011;60173;52.112;8.648;2023-05-10T02:46:46;6.82;;;5.50;;
72261;SDS011;60173;52.112;8.648;2023-05-10T02:49:13;7.15;;;5.50;;
72261;SDS011;60173;52.112;8.648;2023-05-10T02:51:41;5.93;;;5.20;;
72261;SDS011;60173;52.112;8.648;2023-05-10T02:54:15;5.35;;;4.47;;
72261;SDS011;60173;52.112;8.648;2023-05-10T02:56:47;5.30;;;4.40;;
72261;SDS011;60173;52.112;8.648;2023-05-10T02:59:19;5.13;;;4.25;;
72261;SDS011;60173;52.112;8.648;2023-05-10T03:01:46;6.85;;;4.45;;
72261;SDS011;60173;52.112;8.648;2023-05-10T03:04:12;8.10;;;4.70;;
72261;SDS011;60173;52.112;8.648;2023-05-10T03:06:39;6.35;;;4.78;;
72261;SDS011;60173;52.112;8.648;2023-05-10T03:09:05;6.05;;;4.28;;
72261;SDS011;60173;52.112;8.648;2023-05-10T03:11:37;5.95;;;4.72;;
72261;SDS011;60173;52.112;8.648;2023-05-10T03:19:49;6.55;;;5.53;;
72261;SDS011;60173;52.112;8.648;2023-05-10T03:22:19;8.45;;;6.00;;
72261;SDS011;60173;52.112;8.648;2023-05-10T03:24:51;12.52;;;6.80;;
72261;SDS011;60173;52.112;8.648;2023-05-10T03:27:22;7.82;;;6.70;;
72261;SDS011;60173;52.112;8.648;2023-05-10T03:29:51;7.82;;;7.03;;
72261;SDS011;60173;52.112;8.648;2023-05-10T03:32:19;10.05;;;7.30;;
72261;SDS011;60173;52.112;8.648;2023-05-10T03:34:45;11.68;;;8.70;;
72261;SDS011;60173;52.112;8.648;2023-05-10T03:37:12;10.82;;;8.10;;
72261;SDS011;60173;52.112;8.648;2023-05-10T03:39:38;11.73;;;9.02;;
72261;SDS011;60173;52.112;8.648;2023-05-10T03:42:04;9.80;;;8.40;;
72261;SDS011;60173;52.112;8.648;2023-05-10T03:44:31;10.55;;;8.50;;
72261;SDS011;60173;52.112;8.648;2023-05-10T03:46:57;13.20;;;8.88;;
72261;SDS011;60173;52.112;8.648;2023-05-10T03:49:24;11.10;;;8.95;;
72261;SDS011;60173;52.112;8.648;2023-05-10T03:51:50;11.35;;;9.23;;
72261;SDS011;60173;52.112;8.648;2023-05-10T03:54:17;12.77;;;9.32;;
72261;SDS011;60173;52.112;8.648;2023-05-10T03:56:43;11.40;;;8.60;;
72261;SDS011;60173;52.112;8.648;2023-05-10T03:59:09;10.75;;;8.80;;
72261;SDS011;60173;52.112;8.648;2023-05-10T04:01:35;10.63;;;9.15;;
72261;SDS011;60173;52.112;8.648;2023-05-10T04:04:02;12.77;;;9.48;;
72261;SDS011;60173;52.112;8.648;2023-05-10T04:06:28;10.63;;;8.02;;
72261;SDS011;60173;52.112;8.648;2023-05-10T04:08:55;11.27;;;8.85;;
72261;SDS011;60173;52.112;8.648;2023-05-10T04:11:21;11.90;;;8.77;;
72261;SDS011;60173;52.112;8.648;2023-05-10T04:13:48;11.10;;;7.93;;
72261;SDS011;60173;52.112;8.648;2023-05-10T04:16:14;9.98;;;8.25;;
72261;SDS011;60173;52.112;8.648;2023-05-10T04:18:40;10.98;;;8.20;;
72261;SDS011;60173;52.112;8.648;2023-05-10T04:21:13;13.45;;;7.85;;
72261;SDS011;60173;52.112;8.648;2023-05-10T04:23:40;10.20;;;7.57;;
72261;SDS011;60173;52.112;8.648;2023-05-10T04:26:06;7.57;;;6.72;;
72261;SDS011;60173;52.112;8.648;2023-05-10T04:28:33;9.57;;;7.22;;
72261;SDS011;60173;52.112;8.648;2023-05-10T04:31:03;7.95;;;6.38;;
72261;SDS011;60173;52.112;8.648;2023-05-10T04:33:30;6.90;;;5.78;;
72261;SDS011;60173;52.112;8.648;2023-05-10T04:35:57;5.18;;;4.22;;
72261;SDS011;60173;52.112;8.648;2023-05-10T04:38:23;3.92;;;3.28;;
72261;SDS011;60173;52.112;8.648;2023-05-10T04:40:49;3.20;;;2.78;;
72261;SDS011;60173;52.112;8.648;2023-05-10T04:43:16;4.75;;;2.45;;
72261;SDS011;60173;52.112;8.648;2023-05-10T04:45:42;2.67;;;1.70;;
72261;SDS011;60173;52.112;8.648;2023-05-10T04:48:08;2.65;;;1.60;;
72261;SDS011;60173;52.112;8.648;2023-05-10T04:50:35;3.45;;;1.67;;
72261;SDS011;60173;52.112;8.648;2023-05-10T04:53:01;3.35;;;1.77;;
72261;SDS011;60173;52.112;8.648;2023-05-10T04:55:28;2.55;;;1.98;;
72261;SDS011;60173;52.112;8.648;2023-05-10T04:57:54;4.00;;;2.40;;
72261;SDS011;60173;52.112;8.648;2023-05-10T05:00:20;4.05;;;2.42;;
72261;SDS011;60173;52.112;8.648;2023-05-10T05:02:47;2.97;;;2.42;;
72261;SDS011;60173;52.112;8.648;2023-05-10T05:05:13;4.05;;;2.40;;
72261;SDS011;60173;52.112;8.648;2023-05-10T05:07:40;3.70;;;2.42;;
72261;SDS011;60173;52.112;8.648;2023-05-10T05:10:06;3.13;;;2.47;;
72261;SDS011;60173;52.112;8.648;2023-05-10T05:12:34;4.35;;;2.70;;
72261;SDS011;60173;52.112;8.648;2023-05-10T05:15:01;3.42;;;3.13;;
72261;SDS011;60173;52.112;8.648;2023-05-10T05:17:29;4.13;;;3.03;;
72261;SDS011;60173;52.112;8.648;2023-05-10T05:19:56;3.15;;;2.85;;
72261;SDS011;60173;52.112;8.648;2023-05-10T05:22:22;4.28;;;3.40;;
72261;SDS011;60173;52.112;8.648;2023-05-10T05:24:49;6.18;;;3.35;;
72261;SDS011;60173;52.112;8.648;2023-05-10T05:27:15;3.38;;;3.08;;
72261;SDS011;60173;52.112;8.648;2023-05-10T05:29:41;6.03;;;3.90;;
72261;SDS011;60173;52.112;8.648;2023-05-10T05:32:08;4.18;;;3.45;;
72261;SDS011;60173;52.112;8.648;2023-05-10T05:34:34;4.68;;;3.80;;
72261;SDS011;60173;52.112;8.648;2023-05-10T05:37:01;4.40;;;3.50;;
72261;SDS011;60173;52.112;8.648;2023-05-10T05:39:27;4.50;;;3.47;;
72261;SDS011;60173;52.112;8.648;2023-05-10T05:41:53;6.13;;;2.92;;
72261;SDS011;60173;52.112;8.648;2023-05-10T05:44:20;3.35;;;3.05;;
72261;SDS011;60173;52.112;8.648;2023-05-10T05:46:47;4.95;;;2.97;;
72261;SDS011;60173;52.112;8.648;2023-05-10T05:49:13;4.95;;;3.03;;
72261;SDS011;60173;52.112;8.648;2023-05-10T05:51:39;3.05;;;2.75;;
72261;SDS011;60173;52.112;8.648;2023-05-10T05:54:05;2.85;;;2.60;;
72261;SDS011;60173;52.112;8.648;2023-05-10T05:56:32;3.53;;;2.65;;
72261;SDS011;60173;52.112;8.648;2023-05-10T05:58:58;3.90;;;3.13;;
72261;SDS011;60173;52.112;8.648;2023-05-10T06:01:25;3.92;;;3.05;;
72261;SDS011;60173;52.112;8.648;2023-05-10T06:03:51;2.78;;;2.55;;
72261;SDS011;60173;52.112;8.648;2023-05-10T06:06:18;4.72;;;2.60;;
72261;SDS011;60173;52.112;8.648;2023-05-10T06:08:45;5.20;;;2.90;;
72261;SDS011;60173;52.112;8.648;2023-05-10T06:11:11;8.55;;;2.97;;
72261;SDS011;60173;52.112;8.648;2023-05-10T06:13:37;4.18;;;2.75;;
72261;SDS011;60173;52.112;8.648;2023-05-10T06:16:04;3.50;;;2.47;;
72261;SDS011;60173;52.112;8.648;2023-05-10T06:18:30;2.63;;;2.03;;
72261;SDS011;60173;52.112;8.648;2023-05-10T06:20:57;3.53;;;2.00;;
72261;SDS011;60173;52.112;8.648;2023-05-10T06:23:23;3.42;;;1.90;;
72261;SDS011;60173;52.112;8.648;2023-05-10T06:25:49;3.22;;;2.13;;
72261;SDS011;60173;52.112;8.648;2023-05-10T06:28:16;4.50;;;2.17;;
72261;SDS011;60173;52.112;8.648;2023-05-10T06:30:42;2.83;;;1.88;;
72261;SDS011;60173;52.112;8.648;2023-05-10T06:33:08;2.03;;;1.67;;
72261;SDS011;60173;52.112;8.648;2023-05-10T06:35:35;3.95;;;1.90;;
72261;SDS011;60173;52.112;8.648;2023-05-10T06:38:01;2.92;;;1.92;;
72261;SDS011;60173;52.112;8.648;2023-05-10T06:40:28;3.20;;;1.60;;
72261;SDS011;60173;52.112;8.648;2023-05-10T06:42:54;2.88;;;1.60;;
72261;SDS011;60173;52.112;8.648;2023-05-10T06:45:20;2.28;;;1.50;;
72261;SDS011;60173;52.112;8.648;2023-05-10T06:47:46;1.90;;;1.70;;
72261;SDS011;60173;52.112;8.648;2023-05-10T06:50:13;5.35;;;2.67;;
72261;SDS011;60173;52.112;8.648;2023-05-10T06:52:39;3.33;;;2.65;;
72261;SDS011;60173;52.112;8.648;2023-05-10T06:55:06;3.15;;;2.50;;
72261;SDS011;60173;52.112;8.648;2023-05-10T06:57:32;5.43;;;3.42;;
72261;SDS011;60173;52.112;8.648;2023-05-10T06:59:59;4.22;;;3.28;;
72261;SDS011;60173;52.112;8.648;2023-05-10T07:02:25;4.13;;;3.00;;
72261;SDS011;60173;52.112;8.648;2023-05-10T07:04:52;4.82;;;3.17;;
72261;SDS011;60173;52.112;8.648;2023-05-10T07:07:18;6.60;;;3.58;;
72261;SDS011;60173;52.112;8.648;2023-05-10T07:09:45;5.88;;;3.47;;
72261;SDS011;60173;52.112;8.648;2023-05-10T07:12:11;3.85;;;3.13;;
72261;SDS011;60173;52.112;8.648;2023-05-10T07:14:40;6.25;;;3.05;;
72261;SDS011;60173;52.112;8.648;2023-05-10T07:17:06;3.88;;;2.88;;
72261;SDS011;60173;52.112;8.648;2023-05-10T07:19:33;7.32;;;3.13;;
72261;SDS011;60173;52.112;8.648;2023-05-10T07:21:59;3.75;;;3.13;;
72261;SDS011;60173;52.112;8.648;2023-05-10T07:24:26;3.75;;;2.45;;
72261;SDS011;60173;52.112;8.648;2023-05-10T07:26:52;3.65;;;2.70;;
72261;SDS011;60173;52.112;8.648;2023-05-10T07:29:18;3.33;;;2.58;;
72261;SDS011;60173;52.112;8.648;2023-05-10T07:31:45;5.03;;;3.08;;
72261;SDS011;60173;52.112;8.648;2023-05-10T07:34:11;6.95;;;3.60;;
72261;SDS011;60173;52.112;8.648;2023-05-10T07:36:37;6.47;;;3.47;;
72261;SDS011;60173;52.112;8.648;2023-05-10T07:39:03;4.90;;;3.53;;
72261;SDS011;60173;52.112;8.648;2023-05-10T07:41:30;4.35;;;2.90;;
72261;SDS011;60173;52.112;8.648;2023-05-10T07:43:56;4.63;;;3.20;;
72261;SDS011;60173;52.112;8.648;2023-05-10T07:46:23;4.22;;;3.25;;
72261;SDS011;60173;52.112;8.648;2023-05-10T07:48:49;4.03;;;3.33;;
72261;SDS011;60173;52.112;8.648;2023-05-10T07:51:15;4.70;;;3.15;;
72261;SDS011;60173;52.112;8.648;2023-05-10T07:53:42;5.22;;;3.83;;
72261;SDS011;60173;52.112;8.648;2023-05-10T07:56:27;5.85;;;3.78;;
72261;SDS011;60173;52.112;8.648;2023-05-10T07:59:01;4.60;;;3.83;;
72261;SDS011;60173;52.112;8.648;2023-05-10T08:01:30;8.77;;;4.60;;
72261;SDS011;60173;52.112;8.648;2023-05-10T08:03:57;6.57;;;4.45;;
72261;SDS011;60173;52.112;8.648;2023-05-10T08:06:24;8.15;;;4.13;;
72261;SDS011;60173;52.112;8.648;2023-05-10T08:08:50;8.20;;;5.28;;
72261;SDS011;60173;52.112;8.648;2023-05-10T08:11:17;9.70;;;5.70;;
72261;SDS011;60173;52.112;8.648;2023-05-10T08:13:44;7.88;;;5.35;;
72261;SDS011;60173;52.112;8.648;2023-05-10T08:16:11;7.50;;;5.60;;
72261;SDS011;60173;52.112;8.648;2023-05-10T08:18:37;7.30;;;6.05;;
72261;SDS011;60173;52.112;8.648;2023-05-10T08:21:05;8.13;;;5.95;;
72261;SDS011;60173;52.112;8.648;2023-05-10T08:23:31;11.35;;;6.75;;
72261;SDS011;60173;52.112;8.648;2023-05-10T08:25:58;8.10;;;6.47;;
72261;SDS011;60173;52.112;8.648;2023-05-10T08:28:25;8.80;;;6.07;;
72261;SDS011;60173;52.112;8.648;2023-05-10T08:30:51;10.48;;;6.70;;
72261;SDS011;60173;52.112;8.648;2023-05-10T08:33:18;9.23;;;6.03;;
72261;SDS011;60173;52.112;8.648;2023-05-10T08:35:44;7.15;;;5.60;;
72261;SDS011;60173;52.112;8.648;2023-05-10T08:38:11;9.82;;;6.57;;
72261;SDS011;60173;52.112;8.648;2023-05-10T08:40:37;14.55;;;7.55;;
72261;SDS011;60173;52.112;8.648;2023-05-10T08:43:04;12.27;;;7.38;;
72261;SDS011;60173;52.112;8.648;2023-05-10T08:45:33;16.50;;;7.85;;
72261;SDS011;60173;52.112;8.648;2023-05-10T08:48:07;10.98;;;7.80;;
72261;SDS011;60173;52.112;8.648;2023-05-10T08:50:35;10.68;;;7.82;;
72261;SDS011;60173;52.112;8.648;2023-05-10T08:53:04;12.70;;;8.13;;
72261;SDS011;60173;52.112;8.648;2023-05-10T08:55:38;13.05;;;9.25;;
72261;SDS011;60173;52.112;8.648;2023-05-10T08:58:05;14.50;;;9.23;;
72261;SDS011;60173;52.112;8.648;2023-05-10T09:00:32;13.43;;;9.32;;
72261;SDS011;60173;52.112;8.648;2023-05-10T09:03:00;13.88;;;10.10;;
72261;SDS011;60173;52.112;8.648;2023-05-10T09:05:27;16.67;;;11.93;;
72261;SDS011;60173;52.112;8.648;2023-05-10T09:07:53;16.67;;;11.43;;
72261;SDS011;60173;52.112;8.648;2023-05-10T09:10:20;14.50;;;11.80;;
72261;SDS011;60173;52.112;8.648;2023-05-10T09:12:48;18.85;;;12.40;;
72261;SDS011;60173;52.112;8.648;2023-05-10T09:15:15;19.70;;;13.27;;
72261;SDS011;60173;52.112;8.648;2023-05-10T09:17:42;19.25;;;12.68;;
72261;SDS011;60173;52.112;8.648;2023-05-10T09:20:10;19.13;;;13.20;;
72261;SDS011;60173;52.112;8.648;2023-05-10T09:22:36;21.73;;;13.95;;
72261;SDS011;60173;52.112;8.648;2023-05-10T09:25:12;18.10;;;12.30;;
72261;SDS011;60173;52.112;8.648;2023-05-10T09:27:41;16.50;;;12.60;;
72261;SDS011;60173;52.112;8.648;2023-05-10T09:30:10;19.40;;;13.60;;
72261;SDS011;60173;52.112;8.648;2023-05-10T09:32:45;18.45;;;12.68;;
72261;SDS011;60173;52.112;8.648;2023-05-10T09:35:17;18.67;;;12.98;;
72261;SDS011;60173;52.112;8.648;2023-05-10T09:37:45;21.52;;;13.70;;
72261;SDS011;60173;52.112;8.648;2023-05-10T09:40:18;23.70;;;14.13;;
72261;SDS011;60173;52.112;8.648;2023-05-10T09:42:59;16.73;;;11.82;;
72261;SDS011;60173;52.112;8.648;2023-05-10T09:45:27;14.15;;;10.85;;
72261;SDS011;60173;52.112;8.648;2023-05-10T09:47:55;15.80;;;10.43;;
72261;SDS011;60173;52.112;8.648;2023-05-10T09:50:22;16.17;;;10.52;;
72261;SDS011;60173;52.112;8.648;2023-05-10T09:52:50;17.42;;;9.45;;
72261;SDS011;60173;52.112;8.648;2023-05-10T09:55:19;15.93;;;9.48;;
72261;SDS011;60173;52.112;8.648;2023-05-10T09:57:48;19.23;;;10.93;;
72261;SDS011;60173;52.112;8.648;2023-05-10T10:00:18;18.02;;;11.40;;
72261;SDS011;60173;52.112;8.648;2023-05-10T10:03:04;18.38;;;11.02;;
72261;SDS011;60173;52.112;8.648;2023-05-10T10:05:31;19.48;;;11.20;;
72261;SDS011;60173;52.112;8.648;2023-05-10T10:08:04;18.15;;;10.57;;
72261;SDS011;60173;52.112;8.648;2023-05-10T10:10:32;17.45;;;11.00;;
72261;SDS011;60173;52.112;8.648;2023-05-10T10:12:59;15.57;;;11.00;;
72261;SDS011;60173;52.112;8.648;2023-05-10T10:15:26;21.17;;;11.98;;
72261;SDS011;60173;52.112;8.648;2023-05-10T10:17:52;14.88;;;10.68;;
72261;SDS011;60173;52.112;8.648;2023-05-10T10:20:20;17.88;;;10.13;;
72261;SDS011;60173;52.112;8.648;2023-05-10T10:22:48;15.63;;;10.13;;
72261;SDS011;60173;52.112;8.648;2023-05-10T10:25:15;15.93;;;10.15;;
72261;SDS011;60173;52.112;8.648;2023-05-10T10:35:54;14.73;;;9.50;;
72261;SDS011;60173;52.112;8.648;2023-05-10T10:38:23;16.10;;;9.77;;
72261;SDS011;60173;52.112;8.648;2023-05-10T10:41:01;15.13;;;9.45;;
72261;SDS011;60173;52.112;8.648;2023-05-10T10:43:37;12.98;;;9.25;;
72261;SDS011;60173;52.112;8.648;2023-05-10T10:46:16;13.98;;;9.07;;
72261;SDS011;60173;52.112;8.648;2023-05-10T10:48:47;11.95;;;8.70;;
72261;SDS011;60173;52.112;8.648;2023-05-10T10:51:14;15.02;;;10.27;;
72261;SDS011;60173;52.112;8.648;2023-05-10T10:53:41;14.23;;;9.52;;
72261;SDS011;60173;52.112;8.648;2023-05-10T10:56:09;13.75;;;8.40;;
72261;SDS011;60173;52.112;8.648;2023-05-10T10:58:37;12.48;;;8.25;;
72261;SDS011;60173;52.112;8.648;2023-05-10T11:01:14;13.23;;;7.88;;
72261;SDS011;60173;52.112;8.648;2023-05-10T11:03:54;10.93;;;6.32;;
72261;SDS011;60173;52.112;8.648;2023-05-10T11:06:41;8.27;;;6.75;;
72261;SDS011;60173;52.112;8.648;2023-05-10T11:09:08;11.57;;;6.63;;
72261;SDS011;60173;52.112;8.648;2023-05-10T11:11:36;11.60;;;6.28;;
72261;SDS011;60173;52.112;8.648;2023-05-10T11:14:15;9.13;;;5.00;;
72261;SDS011;60173;52.112;8.648;2023-05-10T11:16:46;7.22;;;4.55;;
72261;SDS011;60173;52.112;8.648;2023-05-10T11:19:14;7.90;;;5.03;;
72261;SDS011;60173;52.112;8.648;2023-05-10T11:21:48;8.43;;;5.90;;
72261;SDS011;60173;52.112;8.648;2023-05-10T11:24:17;9.80;;;6.53;;
72261;SDS011;60173;52.112;8.648;2023-05-10T11:26:45;9.07;;;5.13;;
72261;SDS011;60173;52.112;8.648;2023-05-10T11:29:15;9.20;;;5.68;;
72261;SDS011;60173;52.112;8.648;2023-05-10T11:31:42;6.32;;;4.57;;
72261;SDS011;60173;52.112;8.648;2023-05-10T11:34:10;11.07;;;5.60;;
72261;SDS011;60173;52.112;8.648;2023-05-10T11:36:36;10.13;;;5.00;;
72261;SDS011;60173;52.112;8.648;2023-05-10T11:39:03;8.38;;;5.00;;
72261;SDS011;60173;52.112;8.648;2023-05-10T11:41:30;8.23;;;4.65;;
72261;SDS011;60173;52.112;8.648;2023-05-10T11:43:58;7.53;;;4.55;;
72261;SDS011;60173;52.112;8.648;2023-05-10T11:46:25;7.57;;;4.18;;
72261;SDS011;60173;52.112;8.648;2023-05-10T11:48:53;7.18;;;4.50;;
72261;SDS011;60173;52.112;8.648;2023-05-10T11:51:23;10.23;;;4.43;;
72261;SDS011;60173;52.112;8.648;2023-05-10T11:53:52;7.50;;;4.25;;
72261;SDS011;60173;52.112;8.648;2023-05-10T11:56:20;6.18;;;4.35;;
72261;SDS011;60173;52.112;8.648;2023-05-10T11:58:51;8.13;;;4.93;;
72261;SDS011;60173;52.112;8.648;2023-05-10T12:01:20;9.43;;;5.65;;
72261;SDS011;60173;52.112;8.648;2023-05-10T12:03:47;9.07;;;4.95;;
72261;SDS011;60173;52.112;8.648;2023-05-10T12:06:14;8.43;;;5.07;;
72261;SDS011;60173;52.112;8.648;2023-05-10T12:08:44;5.93;;;4.25;;
72261;SDS011;60173;52.112;8.648;2023-05-10T12:11:11;8.75;;;4.93;;
72261;SDS011;60173;52.112;8.648;2023-05-10T12:13:39;9.93;;;4.63;;
72261;SDS011;60173;52.112;8.648;2023-05-10T12:18:42;10.20;;;5.63;;
72261;SDS011;60173;52.112;8.648;2023-05-10T12:21:09;8.85;;;5.65;;
72261;SDS011;60173;52.112;8.648;2023-05-10T12:23:37;6.90;;;5.30;;
72261;SDS011;60173;52.112;8.648;2023-05-10T12:26:05;7.68;;;5.07;;
72261;SDS011;60173;52.112;8.648;2023-05-10T12:28:32;10.88;;;5.85;;
72261;SDS011;60173;52.112;8.648;2023-05-10T12:30:59;8.90;;;5.28;;
72261;SDS011;60173;52.112;8.648;2023-05-10T12:33:28;8.45;;;5.53;;
72261;SDS011;60173;52.112;8.648;2023-05-10T12:36:01;8.23;;;5.45;;
72261;SDS011;60173;52.112;8.648;2023-05-10T12:38:38;10.43;;;5.68;;
72261;SDS011;60173;52.112;8.648;2023-05-10T12:41:06;7.32;;;4.38;;
72261;SDS011;60173;52.112;8.648;2023-05-10T12:43:34;6.80;;;4.40;;
72261;SDS011;60173;52.112;8.648;2023-05-10T12:46:05;11.02;;;5.60;;
72261;SDS011;60173;52.112;8.648;2023-05-10T12:48:39;7.65;;;4.03;;
72261;SDS011;60173;52.112;8.648;2023-05-10T12:51:07;10.93;;;6.10;;
72261;SDS011;60173;52.112;8.648;2023-05-10T12:53:34;7.60;;;5.45;;
72261;SDS011;60173;52.112;8.648;2023-05-10T12:56:01;9.65;;;5.57;;
72261;SDS011;60173;52.112;8.648;2023-05-10T12:58:28;12.45;;;5.20;;
72261;SDS011;60173;52.112;8.648;2023-05-10T13:01:01;8.32;;;5.22;;
72261;SDS011;60173;52.112;8.648;2023-05-10T13:03:28;10.20;;;5.65;;
72261;SDS011;60173;52.112;8.648;2023-05-10T13:05:54;10.63;;;6.60;;
72261;SDS011;60173;52.112;8.648;2023-05-10T13:08:21;11.07;;;7.15;;
72261;SDS011;60173;52.112;8.648;2023-05-10T13:10:47;12.45;;;6.35;;
72261;SDS011;60173;52.112;8.648;2023-05-10T13:13:14;9.93;;;5.93;;
72261;SDS011;60173;52.112;8.648;2023-05-10T13:15:41;8.23;;;6.40;;
72261;SDS011;60173;52.112;8.648;2023-05-10T13:18:07;9.40;;;5.93;;
72261;SDS011;60173;52.112;8.648;2023-05-10T13:20:34;12.38;;;6.80;;
72261;SDS011;60173;52.112;8.648;2023-05-10T13:23:00;11.93;;;7.22;;
72261;SDS011;60173;52.112;8.648;2023-05-10T13:25:27;11.30;;;7.30;;
72261;SDS011;60173;52.112;8.648;2023-05-10T13:27:53;17.02;;;7.70;;
72261;SDS011;60173;52.112;8.648;2023-05-10T13:30:19;11.63;;;6.90;;
72261;SDS011;60173;52.112;8.648;2023-05-10T13:32:46;9.80;;;5.72;;
72261;SDS011;60173;52.112;8.648;2023-05-10T13:35:12;13.63;;;7.35;;
72261;SDS011;60173;52.112;8.648;2023-05-10T13:37:38;12.90;;;7.32;;
72261;SDS011;60173;52.112;8.648;2023-05-10T13:40:05;12.40;;;6.38;;
72261;SDS011;60173;52.112;8.648;2023-05-10T13:42:32;10.88;;;6.90;;
72261;SDS011;60173;52.112;8.648;2023-05-10T13:44:58;14.88;;;7.40;;
72261;SDS011;60173;52.112;8.648;2023-05-10T13:47:25;12.57;;;7.38;;
72261;SDS011;60173;52.112;8.648;2023-05-10T13:49:51;10.23;;;6.75;;
72261;SDS011;60173;52.112;8.648;2023-05-10T13:52:18;11.32;;;7.00;;
72261;SDS011;60173;52.112;8.648;2023-05-10T13:54:44;11.73;;;6.50;;
72261;SDS011;60173;52.112;8.648;2023-05-10T13:57:10;7.80;;;5.63;;
72261;SDS011;60173;52.112;8.648;2023-05-10T13:59:37;14.57;;;9.90;;
72261;SDS011;60173;52.112;8.648;2023-05-10T14:02:03;16.98;;;10.25;;
72261;SDS011;60173;52.112;8.648;2023-05-10T14:04:29;24.15;;;12.68;;
72261;SDS011;60173;52.112;8.648;2023-05-10T14:06:56;24.58;;;12.05;;
72261;SDS011;60173;52.112;8.648;2023-05-10T14:09:22;20.98;;;12.00;;
72261;SDS011;60173;52.112;8.648;2023-05-10T14:11:49;24.88;;;12.88;;
72261;SDS011;60173;52.112;8.648;2023-05-10T14:14:15;24.75;;;12.65;;
72261;SDS011;60173;52.112;8.648;2023-05-10T14:16:42;24.80;;;13.20;;
72261;SDS011;60173;52.112;8.648;2023-05-10T14:19:10;23.65;;;12.95;;
72261;SDS011;60173;52.112;8.648;2023-05-10T14:21:37;26.60;;;14.65;;
72261;SDS011;60173;52.112;8.648;2023-05-10T14:24:03;23.25;;;14.98;;
72261;SDS011;60173;52.112;8.648;2023-05-10T14:26:30;26.83;;;14.52;;
72261;SDS011;60173;52.112;8.648;2023-05-10T14:28:56;23.23;;;14.07;;
72261;SDS011;60173;52.112;8.648;2023-05-10T14:31:23;28.15;;;15.73;;
72261;SDS011;60173;52.112;8.648;2023-05-10T14:33:49;32.30;;;17.60;;
72261;SDS011;60173;52.112;8.648;2023-05-10T14:36:16;27.55;;;16.38;;
72261;SDS011;60173;52.112;8.648;2023-05-10T14:38:43;31.42;;;16.35;;
72261;SDS011;60173;52.112;8.648;2023-05-10T14:41:10;28.85;;;17.02;;
72261;SDS011;60173;52.112;8.648;2023-05-10T14:43:37;28.50;;;16.05;;
72261;SDS011;60173;52.112;8.648;2023-05-10T14:46:03;23.45;;;14.68;;
72261;SDS011;60173;52.112;8.648;2023-05-10T14:48:29;21.63;;;13.80;;
72261;SDS011;60173;52.112;8.648;2023-05-10T14:50:56;25.48;;;14.43;;
72261;SDS011;60173;52.112;8.648;2023-05-10T14:53:22;20.63;;;13.77;;
72261;SDS011;60173;52.112;8.648;2023-05-10T14:55:48;20.58;;;12.60;;
72261;SDS011;60173;52.112;8.648;2023-05-10T14:58:15;17.55;;;11.77;;
72261;SDS011;60173;52.112;8.648;2023-05-10T15:00:41;19.70;;;11.82;;
72261;SDS011;60173;52.112;8.648;2023-05-10T15:03:08;19.40;;;12.50;;
72261;SDS011;60173;52.112;8.648;2023-05-10T15:05:35;22.05;;;13.27;;
72261;SDS011;60173;52.112;8.648;2023-05-10T15:08:02;16.50;;;10.93;;